createdAt,value
2019-03-13T00:02:51.504Z,49.4
2019-03-13T00:07:56.896Z,49.5
2019-03-13T00:13:02.678Z,49.5
2019-03-13T00:18:08.059Z,49.5
2019-03-13T00:23:13.891Z,49.6
2019-03-13T00:28:19.804Z,49.6
2019-03-13T00:38:29.393Z,49.6
2019-03-13T00:43:35.036Z,49.7
2019-03-13T00:48:40.463Z,49.7
2019-03-13T00:53:45.755Z,50.4
2019-03-13T00:58:51.388Z,49.8
2019-03-13T01:03:57.219Z,49.8
2019-03-13T01:09:02.612Z,49.8
2019-03-13T01:14:08.333Z,49.8
2019-03-13T01:19:13.537Z,49.8
2019-03-13T01:24:18.831Z,49.9
2019-03-13T01:29:24.520Z,49.9
2019-03-13T01:34:30.698Z,49.9
2019-03-13T01:39:35.842Z,50
2019-03-13T01:44:43.542Z,50
2019-03-13T01:49:49.639Z,50
2019-03-13T01:54:55.021Z,50
2019-03-13T02:00:00.295Z,50.1
2019-03-13T02:05:06.423Z,50.3
2019-03-13T02:10:11.512Z,50.5
2019-03-13T02:15:16.907Z,50.4
2019-03-13T02:20:22.172Z,50.4
2019-03-13T02:25:27.787Z,50.4
2019-03-13T02:30:33.524Z,50.5
2019-03-13T02:35:38.732Z,50.4
2019-03-13T02:40:44.401Z,50.4
2019-03-13T02:45:49.569Z,50.3
2019-03-13T02:50:55.515Z,50.3
2019-03-13T02:56:00.423Z,50.4
2019-03-13T03:01:06.396Z,50.4
2019-03-13T03:06:11.592Z,50.3
2019-03-13T03:11:16.999Z,50.4
2019-03-13T03:16:22.644Z,50.3
2019-03-13T03:21:28.410Z,50.4
2019-03-13T03:26:33.449Z,50.3
2019-03-13T03:31:39.036Z,50.3
2019-03-13T03:36:45.224Z,50.3
2019-03-13T03:41:50.989Z,50.4
2019-03-13T03:46:55.181Z,50.3
2019-03-13T03:52:00.883Z,50.4
2019-03-13T03:57:06.460Z,50.3
2019-03-13T04:02:11.653Z,50.3
2019-03-13T04:07:17.474Z,50.3
2019-03-13T04:12:23.253Z,50.3
2019-03-13T04:17:29.134Z,50.3
2019-03-13T04:22:34.522Z,50.3
2019-03-13T04:32:44.207Z,50.3
2019-03-13T04:37:49.464Z,50.3
2019-03-13T04:42:54.661Z,50.3
2019-03-13T04:47:59.849Z,50.3
2019-03-13T04:53:05.716Z,50.3
2019-03-13T04:58:10.885Z,50.4
2019-03-13T05:03:15.218Z,50.3
2019-03-13T05:08:20.886Z,50.4
2019-03-13T05:13:26.569Z,50.3
2019-03-13T05:18:32.424Z,50.3
2019-03-13T05:23:37.734Z,50.1
2019-03-13T05:28:43.601Z,50.1
2019-03-13T05:33:47.714Z,50
2019-03-13T05:38:52.930Z,49.9
2019-03-13T05:43:58.436Z,50
2019-03-13T05:49:03.468Z,50
2019-03-13T05:54:09.313Z,50.9
2019-03-13T05:59:15.134Z,50.3
2019-03-13T06:04:20.910Z,49.3
2019-03-13T06:09:28.550Z,49.4
2019-03-13T06:14:33.994Z,49.4
2019-03-13T06:19:39.048Z,49.4
2019-03-13T06:24:44.148Z,49.5
2019-03-13T06:29:49.309Z,49.4
2019-03-13T06:34:54.815Z,49.3
2019-03-13T06:39:59.975Z,49.6
2019-03-13T06:45:05.067Z,49.6
2019-03-13T06:50:10.013Z,49.9
2019-03-13T06:55:15.346Z,50.1
2019-03-13T07:00:21.149Z,50
2019-03-13T07:05:26.375Z,49.6
2019-03-13T07:10:32.045Z,49.6
2019-03-13T07:15:38.628Z,49.5
2019-03-13T07:20:44.351Z,49.6
2019-03-13T07:25:50.281Z,49.2
2019-03-13T07:30:55.404Z,49.4
2019-03-13T07:41:05.112Z,49.5
2019-03-13T07:46:11.120Z,49.5
2019-03-13T07:51:16.789Z,49.6
2019-03-13T07:56:22.460Z,50
2019-03-13T08:01:28.103Z,50.1
2019-03-13T08:06:34.280Z,50.2
2019-03-13T08:11:39.477Z,50.2
2019-03-13T08:16:45.448Z,50.3
2019-03-13T08:21:51.102Z,50.5
2019-03-13T08:26:56.599Z,50.5
2019-03-13T08:32:02.757Z,50.4
2019-03-13T08:37:08.136Z,50.4
2019-03-13T08:42:13.994Z,50.4
2019-03-13T08:47:20.021Z,51
2019-03-13T08:52:25.038Z,50.5
2019-03-13T08:57:30.276Z,50.2
2019-03-13T09:02:35.218Z,49.9
2019-03-13T09:07:41.121Z,49.7
2019-03-13T09:12:46.782Z,49.8
2019-03-13T09:17:52.987Z,49.7
2019-03-13T09:28:03.179Z,49.7
2019-03-13T09:33:08.934Z,50.7
2019-03-13T09:38:14.667Z,49.9
2019-03-13T09:48:24.175Z,49.6
2019-03-13T09:53:29.732Z,49.4
2019-03-13T09:58:35.263Z,49.3
2019-03-13T10:03:41.266Z,49.2
2019-03-13T10:13:52.936Z,48.9
2019-03-13T10:18:58.600Z,49
2019-03-13T10:24:04.245Z,48.6
2019-03-13T10:29:10.074Z,48.8
2019-03-13T10:34:15.702Z,48.7
2019-03-13T10:39:21.709Z,48.8
2019-03-13T10:44:27.447Z,48.8
2019-03-13T10:49:33.831Z,48.7
2019-03-13T10:54:39.328Z,48.7
2019-03-13T10:59:45.131Z,48.7
2019-03-13T11:04:50.360Z,48.7
2019-03-13T11:09:56.592Z,48.8
2019-03-13T11:15:02.275Z,48.8
2019-03-13T11:20:07.109Z,48.8
2019-03-13T11:25:13.037Z,48.8
2019-03-13T11:30:21.434Z,48.9
2019-03-13T11:35:27.280Z,48.9
2019-03-13T11:40:33.731Z,48.9
2019-03-13T11:45:39.848Z,48.9
2019-03-13T11:50:45.992Z,48.9
2019-03-13T11:55:52.264Z,48.9
2019-03-13T12:00:58.108Z,49
2019-03-13T12:06:03.348Z,49
2019-03-13T12:11:10.065Z,48.9
2019-03-13T12:16:16.012Z,48.9
2019-03-13T12:21:22.460Z,49
2019-03-13T12:26:28.131Z,49
2019-03-13T12:31:33.826Z,49
2019-03-13T12:36:41.860Z,49
2019-03-13T12:41:47.609Z,49
2019-03-13T12:46:53.013Z,48.9
2019-03-13T12:51:58.470Z,48.9
2019-03-13T12:57:04.333Z,47.7
2019-03-13T13:02:10.613Z,45.5
2019-03-13T13:07:15.655Z,46.3
2019-03-13T13:12:21.428Z,45.7
2019-03-13T13:17:26.489Z,46
2019-03-13T13:22:32.345Z,47
2019-03-13T13:27:37.346Z,48.2
2019-03-13T13:32:43.659Z,50.4
2019-03-13T13:37:49.350Z,49.8
2019-03-13T13:42:55.348Z,49.8
2019-03-13T13:48:00.996Z,49.5
2019-03-13T13:53:07.269Z,49.9
2019-03-13T13:58:12.678Z,50.4
2019-03-13T14:03:18.332Z,50
2019-03-13T14:08:23.735Z,50.1
2019-03-13T14:13:29.330Z,49.5
2019-03-13T14:18:34.996Z,49.6
2019-03-13T14:23:41.009Z,50
2019-03-13T14:28:46.340Z,50
2019-03-13T14:33:51.852Z,50.1
2019-03-13T14:38:57.396Z,50.8
2019-03-13T14:44:03.065Z,50.4
2019-03-13T14:49:08.377Z,50.8
2019-03-13T14:54:13.560Z,24.3
2019-03-13T14:59:19.102Z,35.3
2019-03-13T15:04:25.094Z,35.5
2019-03-13T15:09:30.908Z,37.8
2019-03-13T15:14:36.761Z,43
2019-03-13T15:19:43.026Z,39.5
2019-03-13T15:24:48.748Z,39.5
2019-03-13T15:29:54.216Z,40.2
2019-03-13T15:35:00.389Z,41.8
2019-03-13T15:40:07.259Z,41.6
2019-03-13T15:45:13.517Z,41.7
2019-03-13T15:50:23.490Z,40.6
2019-03-13T15:55:29.310Z,41
2019-03-13T16:00:34.828Z,41.8
2019-03-13T16:05:39.837Z,42.7
2019-03-13T16:10:44.914Z,43.1
2019-03-13T16:15:50.534Z,44.4
2019-03-13T16:20:56.197Z,44.4
2019-03-13T16:26:02.281Z,45
2019-03-13T16:31:02.887Z,45.2
2019-03-13T16:36:07.947Z,45.6
2019-03-13T16:41:13.267Z,45.9
2019-03-13T16:46:20.010Z,46.3
2019-03-13T16:51:25.503Z,46.5
2019-03-13T16:56:30.903Z,46.6
2019-03-13T17:01:36.804Z,46.6
2019-03-13T17:06:43.622Z,46.7
2019-03-13T17:11:49.141Z,46.7
2019-03-13T17:16:55.264Z,47
2019-03-13T17:22:00.487Z,47
2019-03-13T17:27:06.305Z,47.1
2019-03-13T17:32:11.704Z,47.1
2019-03-13T17:37:16.886Z,47.3
2019-03-13T17:42:21.924Z,47.4
2019-03-13T17:47:31.403Z,47
2019-03-13T17:52:36.794Z,46.9
2019-03-13T17:57:42.036Z,47
2019-03-13T18:02:47.415Z,48
2019-03-13T18:07:52.467Z,47.6
2019-03-13T18:12:57.607Z,47.4
2019-03-13T18:18:02.047Z,47.2
2019-03-13T18:23:06.314Z,47.3
2019-03-13T18:28:16.141Z,47.4
2019-03-13T18:33:21.748Z,47.9
2019-03-13T18:38:27.868Z,48.9
2019-03-13T18:43:32.827Z,49
2019-03-13T18:48:39.036Z,49.4
2019-03-13T18:53:44.857Z,49.3
2019-03-13T18:58:50.679Z,30.8
2019-03-13T19:03:56.599Z,30.8
2019-03-13T19:09:02.448Z,35.4
2019-03-13T19:14:07.617Z,38
2019-03-13T19:19:14.063Z,40.7
2019-03-13T19:24:19.419Z,40.7
2019-03-13T19:29:25.263Z,41.8
2019-03-13T19:34:30.676Z,46.5
2019-03-13T19:39:35.821Z,47.9
2019-03-13T19:44:41.193Z,46.5
2019-03-13T19:49:42.293Z,45.6
2019-03-13T19:54:48.712Z,45.7
2019-03-13T19:59:54.384Z,45.8
2019-03-13T20:04:59.570Z,45.8
2019-03-13T20:10:05.241Z,45.9
2019-03-13T20:15:09.637Z,45.9
2019-03-13T20:20:16.293Z,46.4
2019-03-13T20:30:27.086Z,46.5
2019-03-13T20:35:39.197Z,46.6
2019-03-13T20:40:45.733Z,46.5
2019-03-13T20:45:52.216Z,46.5
2019-03-13T20:56:05.034Z,46.9
2019-03-13T21:01:11.170Z,46.9
2019-03-13T21:06:16.824Z,47
2019-03-13T21:11:22.495Z,46.4
2019-03-13T21:16:27.672Z,47
2019-03-13T21:21:32.955Z,47.3
2019-03-13T21:26:38.274Z,47.8
2019-03-13T21:31:44.261Z,48.4
2019-03-13T21:36:50.103Z,48.2
2019-03-13T21:41:56.293Z,48.1
2019-03-13T21:47:01.729Z,48.8
2019-03-13T21:52:07.449Z,48.8
2019-03-13T21:57:13.532Z,48.8
2019-03-13T22:02:28.375Z,48.8
2019-03-13T22:07:28.772Z,48.7
2019-03-13T22:12:36.989Z,48.8
2019-03-13T22:17:42.292Z,48.8
2019-03-13T22:27:52.480Z,48.9
2019-03-13T22:32:57.962Z,48.9
2019-03-13T22:38:03.589Z,49
2019-03-13T22:43:08.995Z,49
2019-03-13T22:48:14.813Z,49
2019-03-13T22:53:21.029Z,49.1
2019-03-13T22:58:27.511Z,49.1
2019-03-13T23:03:32.725Z,49
2019-03-13T23:08:37.976Z,49.1
2019-03-13T23:13:43.509Z,49.2
2019-03-13T23:18:48.696Z,49.1
2019-03-13T23:23:54.512Z,49.2
2019-03-13T23:29:00.796Z,49.1
2019-03-13T23:34:06.131Z,49.2
2019-03-13T23:39:11.656Z,49.2
2019-03-13T23:44:17.183Z,49.2
2019-03-13T23:49:22.515Z,49.2
2019-03-13T23:54:28.151Z,49.1
2019-03-13T23:59:34.280Z,49.8
